createdAt,value
2023-12-21T00:00:59.684Z,22.30
2023-12-21T00:03:28.160Z,28.37
2023-12-21T00:05:56.849Z,26.87
2023-12-21T00:08:25.651Z,27.20
2023-12-21T00:10:54.309Z,27.47
2023-12-21T00:13:24.846Z,24.50
2023-12-21T00:15:53.544Z,22.13
2023-12-21T00:18:22.159Z,24.97
2023-12-21T00:20:50.450Z,26.67
2023-12-21T00:23:19.000Z,26.73
2023-12-21T00:25:47.398Z,29.53
2023-12-21T00:28:16.158Z,32.73
2023-12-21T00:30:46.110Z,29.37
2023-12-21T00:33:14.661Z,26.03
2023-12-21T00:35:43.351Z,28.07
2023-12-21T00:38:12.260Z,37.00
2023-12-21T00:40:40.756Z,30.37
2023-12-21T00:43:09.394Z,37.13
2023-12-21T00:45:37.911Z,30.57
2023-12-21T00:48:08.898Z,37.90
2023-12-21T00:50:37.348Z,37.53
2023-12-21T00:53:05.923Z,29.07
2023-12-21T00:55:34.571Z,28.90
2023-12-21T00:58:03.164Z,31.00
2023-12-21T01:00:31.687Z,34.53
2023-12-21T01:03:00.797Z,39.67
2023-12-21T01:05:30.434Z,37.93
2023-12-21T01:07:59.431Z,36.00
2023-12-21T01:10:28.424Z,35.43
2023-12-21T01:12:57.201Z,39.03
2023-12-21T01:15:25.710Z,36.80
2023-12-21T01:17:54.537Z,36.70
2023-12-21T01:20:23.401Z,36.87
2023-12-21T01:22:53.155Z,41.27
2023-12-21T01:25:21.656Z,44.37
2023-12-21T01:27:50.397Z,36.80
2023-12-21T01:30:19.137Z,46.93
2023-12-21T01:32:47.809Z,35.53
2023-12-21T01:35:16.403Z,39.47
2023-12-21T01:37:45.105Z,40.47
2023-12-21T01:40:15.944Z,38.73
2023-12-21T01:42:44.854Z,35.63
2023-12-21T01:45:14.392Z,31.77
2023-12-21T01:47:43.324Z,33.30
2023-12-21T01:50:13.494Z,33.23
2023-12-21T01:52:42.759Z,39.30
2023-12-21T01:55:12.154Z,32.10
2023-12-21T01:57:42.806Z,35.27
2023-12-21T02:00:13.509Z,43.23
2023-12-21T02:02:42.065Z,42.53
2023-12-21T02:05:11.263Z,36.03
2023-12-21T02:07:39.854Z,41.73
2023-12-21T02:10:08.907Z,35.93
2023-12-21T02:12:37.493Z,35.00
2023-12-21T02:15:09.420Z,33.27
2023-12-21T02:17:39.865Z,36.33
2023-12-21T02:20:09.684Z,31.07
2023-12-21T02:22:41.637Z,26.73
2023-12-21T02:25:11.626Z,41.63
2023-12-21T02:27:40.081Z,37.80
2023-12-21T02:30:09.652Z,40.10
2023-12-21T02:32:38.782Z,37.77
2023-12-21T02:35:08.714Z,37.47
2023-12-21T02:37:37.363Z,48.23
2023-12-21T02:40:06.603Z,46.93
2023-12-21T02:42:36.560Z,39.17
2023-12-21T02:45:05.141Z,37.03
2023-12-21T02:47:33.586Z,34.93
2023-12-21T02:50:03.455Z,35.87
2023-12-21T02:52:31.941Z,39.10
2023-12-21T02:55:00.666Z,41.13
2023-12-21T02:57:29.148Z,34.47
2023-12-21T02:59:58.925Z,41.90
2023-12-21T03:02:27.713Z,31.50
2023-12-21T03:04:56.177Z,34.77
2023-12-21T03:07:24.868Z,34.27
2023-12-21T03:09:53.812Z,32.70
2023-12-21T03:12:22.218Z,38.00
2023-12-21T03:14:50.688Z,33.77
2023-12-21T03:17:20.938Z,34.57
2023-12-21T03:19:49.751Z,34.87
2023-12-21T03:22:18.453Z,40.20
2023-12-21T03:24:47.318Z,29.87
2023-12-21T03:27:16.490Z,33.47
2023-12-21T03:29:45.364Z,28.90
2023-12-21T03:32:13.778Z,31.67
2023-12-21T03:34:43.512Z,31.37
2023-12-21T03:37:12.042Z,32.33
2023-12-21T03:39:40.475Z,23.53
2023-12-21T03:42:08.999Z,29.03
2023-12-21T03:44:37.602Z,34.10
2023-12-21T03:47:06.324Z,37.97
2023-12-21T03:49:35.090Z,31.70
2023-12-21T03:52:04.880Z,26.40
2023-12-21T03:54:33.363Z,27.00
2023-12-21T03:57:02.146Z,26.30
2023-12-21T03:59:30.951Z,31.10
2023-12-21T04:01:59.824Z,31.60
2023-12-21T04:04:29.081Z,22.60
2023-12-21T04:06:57.652Z,28.53
2023-12-21T04:09:27.498Z,30.07
2023-12-21T04:11:55.918Z,35.90
2023-12-21T04:14:24.363Z,25.97
2023-12-21T04:16:53.044Z,28.60
2023-12-21T04:19:21.578Z,37.47
2023-12-21T04:21:50.182Z,30.60
2023-12-21T04:24:19.833Z,36.77
2023-12-21T04:26:49.450Z,38.40
2023-12-21T04:29:18.010Z,27.67
2023-12-21T04:31:46.560Z,38.50
2023-12-21T04:34:15.233Z,38.07
2023-12-21T04:36:43.677Z,40.40
2023-12-21T04:39:12.511Z,32.00
2023-12-21T04:41:42.108Z,34.77
2023-12-21T04:44:11.784Z,33.37
2023-12-21T04:46:40.383Z,31.73
2023-12-21T04:49:08.955Z,33.07
2023-12-21T04:51:37.367Z,32.50
2023-12-21T04:54:07.348Z,30.97
2023-12-21T04:56:35.974Z,34.37
2023-12-21T04:59:04.864Z,21.83
2023-12-21T05:01:34.532Z,25.93
2023-12-21T05:04:05.311Z,12.80
2023-12-21T05:06:33.817Z,26.23
2023-12-21T05:09:02.768Z,19.80
2023-12-21T05:11:31.305Z,16.97
2023-12-21T05:13:59.760Z,18.73
2023-12-21T05:16:28.368Z,15.33
2023-12-21T05:18:58.583Z,17.00
2023-12-21T05:21:27.163Z,17.53
2023-12-21T05:23:55.573Z,16.63
2023-12-21T05:26:23.997Z,15.43
2023-12-21T05:28:52.485Z,14.60
2023-12-21T05:31:25.082Z,14.90
2023-12-21T05:33:54.016Z,20.00
2023-12-21T05:36:24.405Z,21.00
2023-12-21T05:38:53.167Z,16.27
2023-12-21T05:41:21.594Z,18.50
2023-12-21T05:43:49.999Z,12.37
2023-12-21T05:46:18.596Z,15.50
2023-12-21T05:48:48.475Z,17.15
2023-12-21T05:51:17.082Z,14.37
2023-12-21T05:53:46.650Z,16.23
2023-12-21T05:56:14.976Z,12.32
2023-12-21T05:58:43.880Z,15.27
2023-12-21T06:01:12.553Z,13.77
2023-12-21T06:03:41.502Z,15.52
2023-12-21T06:06:10.125Z,14.03
2023-12-21T06:08:38.723Z,9.40
2023-12-21T06:11:08.845Z,14.47
2023-12-21T06:13:37.650Z,15.90
2023-12-21T06:16:12.754Z,17.37
2023-12-21T06:18:41.354Z,15.00
2023-12-21T06:21:10.045Z,17.20
2023-12-21T06:23:38.789Z,14.25
2023-12-21T06:26:08.759Z,19.33
2023-12-21T06:28:37.528Z,14.75
2023-12-21T06:31:06.921Z,18.13
2023-12-21T06:33:35.739Z,13.30
2023-12-21T06:36:04.483Z,10.60
2023-12-21T06:38:33.243Z,12.10
2023-12-21T06:41:01.731Z,10.93
2023-12-21T06:43:31.521Z,16.30
2023-12-21T06:46:00.284Z,16.93
2023-12-21T06:48:28.822Z,19.73
2023-12-21T06:50:57.591Z,10.43
2023-12-21T06:53:26.123Z,12.87
2023-12-21T06:56:07.953Z,10.23
2023-12-21T06:58:44.178Z,15.23
2023-12-21T07:01:12.773Z,17.05
2023-12-21T07:03:41.518Z,18.83
2023-12-21T07:06:12.636Z,13.68
2023-12-21T07:08:41.480Z,15.38
2023-12-21T07:11:10.563Z,12.20
2023-12-21T07:13:39.172Z,17.23
2023-12-21T07:16:09.370Z,15.60
2023-12-21T07:18:38.231Z,15.43
2023-12-21T07:21:07.369Z,10.73
2023-12-21T07:23:35.830Z,10.27
2023-12-21T07:26:04.812Z,15.30
2023-12-21T07:28:34.069Z,15.73
2023-12-21T07:31:02.812Z,9.47
2023-12-21T07:33:32.893Z,11.47
2023-12-21T07:36:02.809Z,8.73
2023-12-21T07:38:31.478Z,11.53
2023-12-21T07:40:59.879Z,20.77
2023-12-21T07:43:28.361Z,12.13
2023-12-21T07:45:57.247Z,9.40
2023-12-21T07:48:25.838Z,9.18
2023-12-21T07:50:55.466Z,13.23
2023-12-21T07:53:23.880Z,14.18
2023-12-21T07:55:52.508Z,12.60
2023-12-21T07:58:21.121Z,15.93
2023-12-21T08:00:49.611Z,14.27
2023-12-21T08:03:18.123Z,15.63
2023-12-21T08:05:46.650Z,12.48
2023-12-21T08:08:16.594Z,17.05
2023-12-21T08:10:45.207Z,21.30
2023-12-21T08:13:14.652Z,16.87
2023-12-21T08:15:43.217Z,18.95
2023-12-21T08:18:14.929Z,14.20
2023-12-21T08:20:44.558Z,19.07
2023-12-21T08:23:13.114Z,16.40
2023-12-21T08:25:42.890Z,14.53
2023-12-21T08:28:11.910Z,12.47
2023-12-21T08:30:42.824Z,11.07
2023-12-21T08:33:11.958Z,14.40
2023-12-21T08:35:40.397Z,11.87
2023-12-21T08:38:10.013Z,14.60
2023-12-21T08:40:38.614Z,8.73
2023-12-21T08:43:08.394Z,14.30
2023-12-21T08:45:37.035Z,14.77
2023-12-21T08:48:06.408Z,15.10
2023-12-21T08:50:34.995Z,14.65
2023-12-21T08:53:04.159Z,22.03
2023-12-21T08:55:32.598Z,16.70
2023-12-21T08:58:01.280Z,16.43
2023-12-21T09:00:31.517Z,18.53
2023-12-21T09:02:59.991Z,23.10
2023-12-21T09:05:28.450Z,18.17
2023-12-21T09:07:57.260Z,19.20
2023-12-21T09:10:26.203Z,22.27
2023-12-21T09:12:54.616Z,21.67
2023-12-21T09:15:23.023Z,19.23
2023-12-21T09:17:54.307Z,25.77
2023-12-21T09:20:23.302Z,18.63
2023-12-21T09:22:52.054Z,21.43
2023-12-21T09:25:20.748Z,19.50
2023-12-21T09:27:49.539Z,17.80
2023-12-21T09:30:20.675Z,22.83
2023-12-21T09:32:50.507Z,25.13
2023-12-21T09:35:21.435Z,22.07
2023-12-21T09:37:51.654Z,20.63
2023-12-21T09:40:20.402Z,22.03
2023-12-21T09:43:01.176Z,24.97
2023-12-21T09:45:33.998Z,16.30
2023-12-21T09:48:02.985Z,18.93
2023-12-21T09:50:33.111Z,19.17
2023-12-21T09:53:03.805Z,18.73
2023-12-21T09:55:33.290Z,21.50
2023-12-21T09:58:02.118Z,14.40
2023-12-21T10:00:32.369Z,18.33
2023-12-21T10:03:00.787Z,16.43
2023-12-21T10:05:29.235Z,19.53
2023-12-21T10:07:59.722Z,18.70
2023-12-21T10:10:28.432Z,20.30
2023-12-21T10:12:57.174Z,23.97
2023-12-21T10:15:26.053Z,15.50
2023-12-21T10:17:54.925Z,12.95
2023-12-21T10:20:25.720Z,18.17
2023-12-21T10:22:54.710Z,11.77
2023-12-21T10:25:25.139Z,15.13
2023-12-21T10:27:56.884Z,17.70
2023-12-21T10:30:26.146Z,14.63
2023-12-21T10:32:57.811Z,17.17
2023-12-21T10:35:28.265Z,14.77
2023-12-21T10:37:57.151Z,22.53
2023-12-21T10:40:28.916Z,16.27
2023-12-21T10:42:57.705Z,15.13
2023-12-21T10:45:33.956Z,18.73
2023-12-21T10:48:08.711Z,20.38
2023-12-21T10:50:38.969Z,18.20
2023-12-21T10:53:11.574Z,19.90
2023-12-21T10:55:43.255Z,23.80
2023-12-21T10:58:13.582Z,23.30
2023-12-21T11:00:44.106Z,34.37
2023-12-21T11:03:18.121Z,29.07
2023-12-21T11:05:47.245Z,28.10
2023-12-21T11:08:15.987Z,26.17
2023-12-21T11:10:47.356Z,33.93
2023-12-21T11:13:15.851Z,25.53
2023-12-21T11:15:45.948Z,28.58
2023-12-21T11:18:20.024Z,33.00
2023-12-21T11:20:55.367Z,32.33
2023-12-21T11:23:25.335Z,32.47
2023-12-21T11:25:58.670Z,35.73
2023-12-21T11:28:29.679Z,25.00
2023-12-21T11:30:58.544Z,33.13
2023-12-21T11:33:31.218Z,32.10
2023-12-21T11:36:00.186Z,39.43
2023-12-21T11:38:46.755Z,29.07
2023-12-21T11:41:18.306Z,32.38
2023-12-21T11:43:57.849Z,30.03
2023-12-21T11:46:27.265Z,29.37
2023-12-21T11:48:56.056Z,23.27
2023-12-21T11:51:24.610Z,25.27
2023-12-21T11:53:53.558Z,35.20
2023-12-21T11:56:23.194Z,33.50
2023-12-21T11:58:53.325Z,24.23
2023-12-21T12:01:27.236Z,26.70
2023-12-21T12:03:56.138Z,33.23
2023-12-21T12:06:29.110Z,23.73
2023-12-21T12:08:58.252Z,27.90
2023-12-21T12:11:28.259Z,17.70
2023-12-21T12:13:59.717Z,28.35
2023-12-21T12:16:28.352Z,20.73
2023-12-21T12:18:57.092Z,23.53
2023-12-21T12:21:25.922Z,22.27
2023-12-21T12:23:54.520Z,23.67
2023-12-21T12:26:23.106Z,28.20
2023-12-21T12:28:54.905Z,19.20
2023-12-21T12:31:23.841Z,24.20
2023-12-21T12:33:52.567Z,25.63
2023-12-21T12:36:21.558Z,28.88
2023-12-21T12:38:51.889Z,28.25
2023-12-21T12:41:21.764Z,22.55
2023-12-21T12:43:50.892Z,29.27
2023-12-21T12:46:22.355Z,27.77
2023-12-21T12:48:51.917Z,29.57
2023-12-21T12:51:23.337Z,29.27
2023-12-21T12:53:53.432Z,22.43
2023-12-21T12:56:21.907Z,25.53
2023-12-21T12:58:58.217Z,30.87
2023-12-21T13:01:30.692Z,8.80
2023-12-21T13:04:00.024Z,2.07
2023-12-21T13:06:30.124Z,0.07
2023-12-21T13:08:59.256Z,0.23
2023-12-21T13:11:27.788Z,0.00
2023-12-21T13:13:56.663Z,0.00
2023-12-21T13:16:25.334Z,0.60
2023-12-21T13:18:55.371Z,0.93
2023-12-21T13:21:24.043Z,0.83
2023-12-21T13:23:52.525Z,0.57
2023-12-21T13:26:21.373Z,0.10
2023-12-21T13:28:50.939Z,0.10
2023-12-21T13:31:19.433Z,0.53
2023-12-21T13:33:48.758Z,2.53
2023-12-21T13:36:18.576Z,0.20
2023-12-21T13:38:47.843Z,0.00
2023-12-21T13:41:16.488Z,0.10
2023-12-21T13:43:47.631Z,0.23
2023-12-21T13:46:18.985Z,0.40
2023-12-21T13:48:47.876Z,0.63
2023-12-21T13:51:17.503Z,1.70
2023-12-21T13:53:45.915Z,0.00
2023-12-21T13:56:14.633Z,0.00
2023-12-21T13:58:43.489Z,0.10
2023-12-21T14:01:12.327Z,0.23
2023-12-21T14:03:40.878Z,0.20
2023-12-21T14:06:09.516Z,0.10
2023-12-21T14:08:39.134Z,0.73
2023-12-21T14:11:07.473Z,0.00
2023-12-21T14:13:36.189Z,0.10
2023-12-21T14:16:04.844Z,0.40
2023-12-21T14:18:34.254Z,0.33
2023-12-21T14:21:03.441Z,4.00
2023-12-21T14:23:31.965Z,11.40
2023-12-21T14:26:02.291Z,12.17
2023-12-21T14:28:39.174Z,12.30
2023-12-21T14:31:12.253Z,17.70
2023-12-21T14:33:41.187Z,15.90
2023-12-21T14:36:10.033Z,16.73
2023-12-21T14:38:38.699Z,17.87
2023-12-21T14:41:08.322Z,17.80
2023-12-21T14:43:36.835Z,22.43
2023-12-21T14:46:05.795Z,15.63
2023-12-21T14:48:34.597Z,19.50
2023-12-21T14:51:04.962Z,21.70
2023-12-21T14:53:34.352Z,23.43
2023-12-21T14:56:03.189Z,21.47
2023-12-21T14:58:32.967Z,17.70
2023-12-21T15:01:02.464Z,25.33
2023-12-21T15:03:32.054Z,30.20
2023-12-21T15:06:00.760Z,19.47
2023-12-21T15:08:30.666Z,21.10
2023-12-21T15:10:59.459Z,20.97
2023-12-21T15:13:28.368Z,18.90
2023-12-21T15:15:58.055Z,18.67
2023-12-21T15:18:26.988Z,17.33
2023-12-21T15:20:55.474Z,16.13
2023-12-21T15:23:24.136Z,14.57
2023-12-21T15:25:53.533Z,13.87
2023-12-21T15:28:22.117Z,9.63
2023-12-21T15:30:50.473Z,14.07
2023-12-21T15:33:20.689Z,15.40
2023-12-21T15:35:49.417Z,22.97
2023-12-21T15:38:18.718Z,14.47
2023-12-21T15:40:47.372Z,21.93
2023-12-21T15:43:15.726Z,17.13
2023-12-21T15:45:45.040Z,19.43
2023-12-21T15:48:13.816Z,18.33
2023-12-21T15:50:47.541Z,16.17
2023-12-21T15:53:16.075Z,13.43
2023-12-21T15:55:44.674Z,17.77
2023-12-21T15:58:13.561Z,12.73
2023-12-21T16:00:42.415Z,15.90
2023-12-21T16:03:11.081Z,16.20
2023-12-21T16:05:39.511Z,14.20
2023-12-21T16:08:10.493Z,19.63
2023-12-21T16:10:38.993Z,22.30
2023-12-21T16:13:07.564Z,13.47
2023-12-21T16:15:36.147Z,12.97
2023-12-21T16:18:05.197Z,23.10
2023-12-21T16:20:33.690Z,17.57
2023-12-21T16:23:03.476Z,17.10
2023-12-21T16:25:33.445Z,20.50
2023-12-21T16:28:01.926Z,19.10
2023-12-21T16:30:30.782Z,14.87
2023-12-21T16:32:59.606Z,14.20
2023-12-21T16:35:28.114Z,14.77
2023-12-21T16:37:56.859Z,18.13
2023-12-21T16:40:25.766Z,17.77
2023-12-21T16:42:55.516Z,17.20
2023-12-21T16:45:23.981Z,21.13
2023-12-21T16:47:52.352Z,15.60
2023-12-21T16:50:20.855Z,18.97
2023-12-21T16:52:49.402Z,20.03
2023-12-21T16:55:18.047Z,15.47
2023-12-21T16:57:46.508Z,19.80
2023-12-21T17:00:17.091Z,13.97
2023-12-21T17:02:45.824Z,19.27
2023-12-21T17:05:14.838Z,11.87
2023-12-21T17:07:45.459Z,14.53
2023-12-21T17:10:14.978Z,16.50
2023-12-21T17:12:47.411Z,12.53
2023-12-21T17:15:17.359Z,27.87
2023-12-21T17:17:46.151Z,25.87
2023-12-21T17:20:15.376Z,21.97
2023-12-21T17:22:43.936Z,19.77
2023-12-21T17:25:12.466Z,22.70
2023-12-21T17:27:41.015Z,25.87
2023-12-21T17:30:10.070Z,23.30
2023-12-21T17:32:40.266Z,22.13
2023-12-21T17:35:09.968Z,24.37
2023-12-21T17:37:38.495Z,26.30
2023-12-21T17:40:10.851Z,18.33
2023-12-21T17:42:39.795Z,22.40
2023-12-21T17:45:10.367Z,18.83
2023-12-21T17:47:40.834Z,24.93
2023-12-21T17:50:10.650Z,26.17
2023-12-21T17:52:39.495Z,27.70
2023-12-21T17:55:08.468Z,17.63
2023-12-21T17:57:36.822Z,25.57
2023-12-21T18:00:06.003Z,23.07
2023-12-21T18:02:34.506Z,19.80
2023-12-21T18:05:05.546Z,20.77
2023-12-21T18:07:34.062Z,23.77
2023-12-21T18:10:02.987Z,16.37
2023-12-21T18:12:31.629Z,13.80
2023-12-21T18:15:00.365Z,24.10
2023-12-21T18:17:28.849Z,23.50
2023-12-21T18:19:57.453Z,23.80
2023-12-21T18:22:27.193Z,24.07
2023-12-21T18:24:57.704Z,24.40
2023-12-21T18:27:26.141Z,21.23
2023-12-21T18:29:58.235Z,24.37
2023-12-21T18:32:26.913Z,20.00
2023-12-21T18:34:55.667Z,23.43
2023-12-21T18:37:24.329Z,27.70
2023-12-21T18:39:54.093Z,29.00
2023-12-21T18:42:22.565Z,18.53
2023-12-21T18:44:51.212Z,20.77
2023-12-21T18:47:19.626Z,17.47
2023-12-21T18:49:48.111Z,14.00
2023-12-21T18:52:16.689Z,18.03
2023-12-21T18:54:45.216Z,16.97
2023-12-21T18:57:17.815Z,20.97
2023-12-21T18:59:46.633Z,21.47
2023-12-21T19:02:16.475Z,18.80
2023-12-21T19:04:45.191Z,24.53
2023-12-21T19:07:13.808Z,16.37
2023-12-21T19:09:42.690Z,17.20
2023-12-21T19:12:11.363Z,18.20
2023-12-21T19:14:44.761Z,18.43
2023-12-21T19:17:13.498Z,15.77
2023-12-21T19:19:42.609Z,20.83
2023-12-21T19:22:11.407Z,20.63
2023-12-21T19:24:40.155Z,24.63
2023-12-21T19:27:08.649Z,22.20
2023-12-21T19:29:37.315Z,28.23
2023-12-21T19:32:08.002Z,19.20
2023-12-21T19:34:36.547Z,23.60
2023-12-21T19:37:05.162Z,21.80
2023-12-21T19:39:33.562Z,22.50
2023-12-21T19:42:01.986Z,23.83
2023-12-21T19:44:30.576Z,17.77
2023-12-21T19:46:58.975Z,22.20
2023-12-21T19:49:29.053Z,15.40
2023-12-21T19:51:57.532Z,17.47
2023-12-21T19:54:26.019Z,17.33
2023-12-21T19:56:54.656Z,11.53
2023-12-21T19:59:23.163Z,22.87
2023-12-21T20:01:51.775Z,15.80
2023-12-21T20:04:20.669Z,16.73
2023-12-21T20:06:51.721Z,13.47
2023-12-21T20:09:20.382Z,22.13
2023-12-21T20:11:48.939Z,19.87
2023-12-21T20:14:17.397Z,23.93
2023-12-21T20:16:46.584Z,21.50
2023-12-21T20:19:15.156Z,16.43
2023-12-21T20:21:45.669Z,18.87
2023-12-21T20:24:15.690Z,17.00
2023-12-21T20:26:44.119Z,18.80
2023-12-21T20:29:15.552Z,19.43
2023-12-21T20:31:43.185Z,17.27
2023-12-21T20:34:13.575Z,17.83
2023-12-21T20:36:42.294Z,21.30
2023-12-21T20:39:10.836Z,20.60
2023-12-21T20:41:40.559Z,18.37
2023-12-21T20:44:10.122Z,17.40
2023-12-21T20:46:38.873Z,22.37
2023-12-21T20:49:07.377Z,21.13
2023-12-21T20:51:35.776Z,19.63
2023-12-21T20:54:04.351Z,21.10
2023-12-21T20:56:32.784Z,19.93
2023-12-21T20:59:02.448Z,21.73
2023-12-21T21:01:31.140Z,26.00
2023-12-21T21:03:59.718Z,23.47
2023-12-21T21:06:28.349Z,23.60
2023-12-21T21:08:57.153Z,21.37
2023-12-21T21:11:26.812Z,24.50
2023-12-21T21:13:55.408Z,26.83
2023-12-21T21:16:26.933Z,25.67
2023-12-21T21:18:55.537Z,23.73
2023-12-21T21:21:24.019Z,29.80
2023-12-21T21:23:52.461Z,29.00
2023-12-21T21:26:21.675Z,26.53
2023-12-21T21:28:50.231Z,31.73
2023-12-21T21:31:19.054Z,24.83
2023-12-21T21:33:50.167Z,29.03
2023-12-21T21:36:20.352Z,34.40
2023-12-21T21:38:48.788Z,27.70
2023-12-21T21:41:17.624Z,30.13
2023-12-21T21:43:46.374Z,23.77
2023-12-21T21:46:14.929Z,30.67
2023-12-21T21:48:43.992Z,31.63
2023-12-21T21:51:16.309Z,22.80
2023-12-21T21:53:46.811Z,25.10
2023-12-21T21:56:19.587Z,24.63
2023-12-21T21:58:48.471Z,23.57
2023-12-21T22:01:17.290Z,24.37
2023-12-21T22:03:46.841Z,35.07
2023-12-21T22:06:16.956Z,19.27
2023-12-21T22:08:45.485Z,24.50
2023-12-21T22:11:13.934Z,21.27
2023-12-21T22:13:42.555Z,25.13
2023-12-21T22:16:11.653Z,22.93
2023-12-21T22:18:40.218Z,22.90
2023-12-21T22:21:09.803Z,29.20
2023-12-21T22:23:39.621Z,28.80
2023-12-21T22:26:09.003Z,20.27
2023-12-21T22:28:37.732Z,21.10
2023-12-21T22:31:06.410Z,25.07
2023-12-21T22:33:34.983Z,27.13
2023-12-21T22:36:03.998Z,17.33
2023-12-21T22:38:33.251Z,20.37
2023-12-21T22:41:03.026Z,21.83
2023-12-21T22:43:39.614Z,30.83
2023-12-21T22:46:11.558Z,21.43
2023-12-21T22:48:40.262Z,24.90
2023-12-21T22:51:08.887Z,36.43
2023-12-21T22:53:37.269Z,32.63
2023-12-21T22:56:07.249Z,37.00
2023-12-21T22:58:35.681Z,32.43
2023-12-21T23:01:04.321Z,38.33
2023-12-21T23:03:32.728Z,28.33
2023-12-21T23:06:01.288Z,24.83
2023-12-21T23:08:30.112Z,37.20
2023-12-21T23:10:58.637Z,29.33
2023-12-21T23:13:29.570Z,29.93
2023-12-21T23:15:58.106Z,29.57
2023-12-21T23:18:26.908Z,27.30
2023-12-21T23:20:55.367Z,31.23
2023-12-21T23:23:24.342Z,29.50
2023-12-21T23:25:53.026Z,30.77
2023-12-21T23:28:21.583Z,24.30
2023-12-21T23:30:53.188Z,30.03
2023-12-21T23:33:22.940Z,28.93
2023-12-21T23:35:51.984Z,26.77
2023-12-21T23:38:20.454Z,27.70
2023-12-21T23:40:49.062Z,30.13
2023-12-21T23:43:17.559Z,27.70
2023-12-21T23:45:47.979Z,22.80
2023-12-21T23:48:18.163Z,26.10
2023-12-21T23:50:46.610Z,22.27
2023-12-21T23:53:15.140Z,26.53
2023-12-21T23:55:43.504Z,27.37
2023-12-21T23:58:12.345Z,28.13
